createdAt,value
2022-12-03T00:00:10.490Z,31.27
2022-12-03T00:02:39.895Z,30.23
2022-12-03T00:05:07.495Z,31.75
2022-12-03T00:07:35.638Z,28.80
2022-12-03T00:10:04.014Z,29.00
2022-12-03T00:12:31.371Z,28.15
2022-12-03T00:14:58.780Z,27.63
2022-12-03T00:17:26.210Z,29.70
2022-12-03T00:19:53.529Z,29.92
2022-12-03T00:22:20.850Z,29.88
2022-12-03T00:24:48.564Z,29.02
2022-12-03T00:27:15.880Z,28.52
2022-12-03T00:29:43.248Z,27.00
2022-12-03T00:32:10.523Z,27.83
2022-12-03T00:34:37.831Z,26.80
2022-12-03T00:37:05.221Z,25.80
2022-12-03T00:39:32.577Z,27.55
2022-12-03T00:41:59.920Z,25.20
2022-12-03T00:44:27.307Z,26.90
2022-12-03T00:46:54.636Z,26.23
2022-12-03T00:49:22.034Z,25.05
2022-12-03T00:51:49.460Z,27.70
2022-12-03T00:54:16.774Z,31.63
2022-12-03T00:56:44.082Z,26.98
2022-12-03T00:59:12.577Z,28.73
2022-12-03T01:01:40.557Z,23.70
2022-12-03T01:04:08.152Z,27.02
2022-12-03T01:06:35.585Z,27.60
2022-12-03T01:09:03.070Z,26.13
2022-12-03T01:11:39.580Z,22.38
2022-12-03T01:14:09.755Z,25.90
2022-12-03T01:16:37.382Z,22.63
2022-12-03T01:19:06.143Z,23.40
2022-12-03T01:21:33.547Z,21.75
2022-12-03T01:24:01.084Z,23.83
2022-12-03T01:26:28.376Z,19.63
2022-12-03T01:28:55.765Z,20.08
2022-12-03T01:31:41.618Z,21.02
2022-12-03T01:34:09.007Z,19.70
2022-12-03T01:36:36.320Z,20.20
2022-12-03T01:39:04.194Z,20.83
2022-12-03T01:41:32.723Z,25.02
2022-12-03T01:44:02.265Z,21.27
2022-12-03T01:46:39.472Z,22.98
2022-12-03T01:49:09.983Z,21.60
2022-12-03T01:51:37.325Z,21.80
2022-12-03T01:54:04.865Z,20.42
2022-12-03T01:56:32.190Z,17.52
2022-12-03T01:58:59.465Z,18.70
2022-12-03T02:01:27.555Z,20.63
2022-12-03T02:03:55.123Z,20.02
2022-12-03T02:06:23.415Z,19.95
2022-12-03T02:08:50.928Z,19.70
2022-12-03T02:11:29.972Z,19.30
2022-12-03T02:14:03.232Z,18.80
2022-12-03T02:16:31.136Z,17.95
2022-12-03T02:18:58.887Z,20.02
2022-12-03T02:21:29.010Z,18.45
2022-12-03T02:24:14.602Z,22.90
2022-12-03T02:26:42.052Z,20.83
2022-12-03T02:29:09.460Z,21.48
2022-12-03T02:31:37.962Z,22.02
2022-12-03T02:34:10.413Z,22.30
2022-12-03T02:36:38.537Z,21.25
2022-12-03T02:39:06.241Z,23.52
2022-12-03T02:41:52.480Z,21.75
2022-12-03T02:44:19.897Z,24.73
2022-12-03T02:46:47.296Z,24.77
2022-12-03T02:49:14.708Z,26.52
2022-12-03T02:51:42.137Z,25.23
2022-12-03T02:54:09.440Z,26.83
2022-12-03T02:56:36.855Z,27.30
2022-12-03T02:59:05.721Z,27.73
2022-12-03T03:01:34.979Z,29.95
2022-12-03T03:04:03.354Z,30.50
2022-12-03T03:06:31.166Z,26.48
2022-12-03T03:08:58.626Z,26.67
2022-12-03T03:11:26.841Z,24.10
2022-12-03T03:13:54.304Z,26.20
2022-12-03T03:16:21.833Z,28.75
2022-12-03T03:18:49.465Z,33.03
2022-12-03T03:21:16.958Z,28.02
2022-12-03T03:23:44.304Z,36.17
2022-12-03T03:26:13.739Z,34.50
2022-12-03T03:28:45.661Z,33.33
2022-12-03T03:31:16.253Z,47.38
2022-12-03T03:33:45.936Z,34.65
2022-12-03T03:36:15.379Z,38.35
2022-12-03T03:38:46.044Z,39.63
2022-12-03T03:41:14.860Z,33.22
2022-12-03T03:43:45.701Z,36.35
2022-12-03T03:46:14.450Z,35.85
2022-12-03T03:48:43.643Z,35.13
2022-12-03T03:51:12.680Z,40.67
2022-12-03T03:53:43.083Z,38.80
2022-12-03T03:56:11.688Z,38.97
2022-12-03T03:58:39.057Z,36.88
2022-12-03T04:01:07.048Z,37.35
2022-12-03T04:03:35.154Z,40.83
2022-12-03T04:06:02.744Z,38.33
2022-12-03T04:08:30.775Z,35.20
2022-12-03T04:11:17.277Z,40.63
2022-12-03T04:13:45.355Z,39.95
2022-12-03T04:16:12.780Z,36.67
2022-12-03T04:18:42.855Z,37.22
2022-12-03T04:24:01.205Z,35.17
2022-12-03T04:26:47.551Z,39.75
2022-12-03T04:29:19.051Z,42.47
2022-12-03T04:32:05.409Z,40.92
2022-12-03T04:34:51.598Z,42.25
2022-12-03T04:37:19.300Z,40.22
2022-12-03T04:39:46.711Z,39.97
2022-12-03T04:42:14.084Z,40.03
2022-12-03T04:44:44.381Z,40.95
2022-12-03T04:47:19.538Z,41.53
2022-12-03T04:49:49.561Z,40.05
2022-12-03T04:54:45.008Z,36.65
2022-12-03T04:57:12.429Z,36.38
2022-12-03T04:59:40.242Z,40.17
2022-12-03T05:02:07.685Z,41.08
2022-12-03T05:04:35.308Z,40.30
2022-12-03T05:07:02.697Z,40.38
2022-12-03T05:09:30.100Z,40.08
2022-12-03T05:11:57.461Z,45.55
2022-12-03T05:14:24.714Z,45.10
2022-12-03T05:16:52.041Z,47.88
2022-12-03T05:19:19.609Z,45.72
2022-12-03T05:21:46.899Z,58.58
2022-12-03T05:24:14.991Z,64.90
2022-12-03T05:26:42.330Z,51.40
2022-12-03T05:29:09.639Z,53.45
2022-12-03T05:31:36.925Z,49.28
2022-12-03T05:34:04.644Z,69.78
2022-12-03T05:36:32.130Z,48.22
2022-12-03T05:38:59.428Z,54.13
2022-12-03T05:41:45.179Z,54.40
2022-12-03T05:44:15.073Z,59.15
2022-12-03T05:46:46.338Z,57.95
2022-12-03T05:49:13.763Z,50.38
2022-12-03T05:51:43.069Z,52.92
2022-12-03T05:54:10.408Z,50.50
2022-12-03T05:56:37.780Z,51.00
2022-12-03T05:59:05.132Z,46.42
2022-12-03T06:01:32.437Z,51.70
2022-12-03T06:03:59.948Z,51.83
2022-12-03T06:06:27.328Z,51.67
2022-12-03T06:08:54.748Z,50.85
2022-12-03T06:11:22.153Z,50.30
2022-12-03T06:13:49.489Z,63.30
2022-12-03T06:16:16.874Z,101.75
2022-12-03T06:18:44.283Z,82.78
2022-12-03T06:21:11.668Z,55.13
2022-12-03T06:23:44.817Z,65.50
2022-12-03T06:26:13.299Z,53.08
2022-12-03T06:28:45.638Z,69.53
2022-12-03T06:31:13.989Z,81.28
2022-12-03T06:33:41.322Z,65.75
2022-12-03T06:36:09.056Z,57.60
2022-12-03T06:38:37.726Z,65.67
2022-12-03T06:41:05.204Z,86.20
2022-12-03T06:43:32.477Z,52.25
2022-12-03T06:46:01.291Z,51.00
2022-12-03T06:48:28.703Z,47.83
2022-12-03T06:50:56.010Z,55.38
2022-12-03T06:53:25.497Z,70.00
2022-12-03T06:55:52.828Z,63.28
2022-12-03T06:58:20.203Z,49.00
2022-12-03T07:00:47.558Z,54.17
2022-12-03T07:03:16.451Z,51.15
2022-12-03T07:05:43.859Z,46.40
2022-12-03T07:08:11.288Z,52.50
2022-12-03T07:10:38.828Z,47.25
2022-12-03T07:13:06.276Z,51.95
2022-12-03T07:15:33.631Z,44.25
2022-12-03T07:18:01.988Z,54.83
2022-12-03T07:20:29.304Z,46.97
2022-12-03T07:22:57.709Z,50.30
2022-12-03T07:25:25.343Z,51.38
2022-12-03T07:27:52.678Z,49.50
2022-12-03T07:30:20.286Z,45.80
2022-12-03T07:32:47.654Z,40.95
2022-12-03T07:35:14.990Z,41.95
2022-12-03T07:37:42.379Z,48.45
2022-12-03T07:40:10.420Z,41.65
2022-12-03T07:42:37.941Z,42.38
2022-12-03T07:45:06.201Z,42.05
2022-12-03T07:47:33.539Z,43.53
2022-12-03T07:50:00.935Z,46.05
2022-12-03T07:52:28.275Z,41.47
2022-12-03T07:54:55.808Z,46.03
2022-12-03T07:57:23.505Z,42.90
2022-12-03T07:59:50.792Z,37.33
2022-12-03T08:02:21.291Z,37.50
2022-12-03T08:04:49.100Z,41.42
2022-12-03T08:07:16.415Z,40.47
2022-12-03T08:09:44.030Z,42.67
2022-12-03T08:12:24.567Z,45.78
2022-12-03T08:14:52.771Z,38.28
2022-12-03T08:17:21.710Z,41.17
2022-12-03T08:19:50.209Z,41.20
2022-12-03T08:22:17.574Z,37.25
2022-12-03T08:24:44.942Z,35.35
2022-12-03T08:27:18.995Z,38.08
2022-12-03T08:29:47.117Z,38.13
2022-12-03T08:32:14.570Z,39.33
2022-12-03T08:34:43.917Z,38.45
2022-12-03T08:37:18.557Z,39.00
2022-12-03T08:39:48.545Z,38.90
2022-12-03T08:45:41.033Z,36.63
2022-12-03T08:48:34.597Z,37.58
2022-12-03T08:51:13.206Z,32.30
2022-12-03T08:53:47.697Z,33.75
2022-12-03T08:56:28.442Z,29.75
2022-12-03T08:59:18.181Z,27.55
2022-12-03T09:01:47.223Z,27.48
2022-12-03T09:04:29.184Z,27.20
2022-12-03T09:06:57.020Z,29.85
2022-12-03T09:09:25.599Z,24.92
2022-12-03T09:11:54.142Z,22.08
2022-12-03T09:14:23.576Z,20.85
2022-12-03T09:16:55.697Z,21.92
2022-12-03T09:19:25.628Z,21.52
2022-12-03T09:21:54.270Z,20.33
2022-12-03T09:24:21.592Z,20.70
2022-12-03T09:26:49.155Z,19.48
2022-12-03T09:29:16.674Z,18.08
2022-12-03T09:31:44.096Z,17.42
2022-12-03T09:34:26.730Z,17.15
2022-12-03T09:36:54.069Z,17.85
2022-12-03T09:39:21.432Z,17.92
2022-12-03T09:41:49.815Z,16.88
2022-12-03T09:44:18.500Z,18.45
2022-12-03T09:46:46.807Z,14.63
2022-12-03T09:49:17.609Z,14.13
2022-12-03T09:51:45.588Z,16.30
2022-12-03T09:54:23.860Z,15.65
2022-12-03T09:56:52.763Z,14.60
2022-12-03T09:59:21.750Z,16.40
2022-12-03T10:01:49.390Z,16.00
2022-12-03T10:04:17.748Z,14.93
2022-12-03T10:06:46.227Z,14.63
2022-12-03T10:09:17.509Z,15.27
2022-12-03T10:11:44.996Z,14.48
2022-12-03T10:14:15.004Z,12.35
2022-12-03T10:19:18.105Z,12.77
2022-12-03T10:21:45.430Z,14.38
2022-12-03T10:24:34.882Z,16.10
2022-12-03T10:27:22.738Z,14.60
2022-12-03T10:30:01.416Z,13.80
2022-12-03T10:32:50.154Z,14.45
2022-12-03T10:35:20.752Z,15.07
2022-12-03T10:38:05.483Z,15.85
2022-12-03T10:40:38.132Z,13.38
2022-12-03T10:43:27.078Z,11.50
2022-12-03T10:46:04.648Z,13.93
2022-12-03T10:48:32.298Z,13.98
2022-12-03T10:51:11.396Z,12.52
2022-12-03T10:53:40.642Z,12.07
2022-12-03T10:56:14.821Z,12.32
2022-12-03T10:58:42.290Z,12.23
2022-12-03T11:01:21.281Z,11.55
2022-12-03T11:03:49.771Z,12.43
2022-12-03T11:06:20.138Z,13.40
2022-12-03T11:08:58.556Z,12.10
2022-12-03T11:11:29.549Z,12.05
2022-12-03T11:16:39.980Z,10.52
2022-12-03T11:19:13.291Z,10.48
2022-12-03T11:22:05.465Z,11.80
2022-12-03T11:24:34.564Z,12.05
2022-12-03T11:27:01.797Z,11.90
2022-12-03T11:29:49.448Z,11.65
2022-12-03T11:32:38.727Z,12.73
2022-12-03T11:35:12.634Z,12.43
2022-12-03T11:37:40.207Z,11.93
2022-12-03T11:40:16.802Z,11.55
2022-12-03T11:42:45.876Z,10.90
2022-12-03T11:45:30.384Z,11.30
2022-12-03T11:48:23.783Z,10.55
2022-12-03T11:50:52.307Z,10.52
2022-12-03T11:53:22.608Z,11.23
2022-12-03T11:56:04.140Z,12.93
2022-12-03T11:58:32.991Z,15.38
2022-12-03T12:01:02.668Z,11.60
2022-12-03T12:06:11.348Z,11.50
2022-12-03T12:08:52.333Z,10.13
2022-12-03T12:11:26.222Z,10.10
2022-12-03T12:13:55.537Z,13.73
2022-12-03T12:16:51.809Z,14.85
2022-12-03T12:19:40.598Z,14.27
2022-12-03T12:22:24.914Z,14.43
2022-12-03T12:25:25.490Z,13.68
2022-12-03T12:27:55.064Z,11.50
2022-12-03T12:30:23.231Z,12.95
2022-12-03T12:32:51.451Z,12.63
2022-12-03T12:35:18.855Z,13.18
2022-12-03T12:38:06.357Z,12.27
2022-12-03T12:40:39.318Z,12.40
2022-12-03T12:43:29.617Z,11.93
2022-12-03T12:46:18.546Z,13.05
2022-12-03T12:48:46.388Z,13.88
2022-12-03T12:51:19.616Z,12.90
2022-12-03T12:53:47.914Z,14.07
2022-12-03T12:56:32.214Z,15.23
2022-12-03T12:59:13.803Z,13.82
2022-12-03T13:01:43.213Z,11.75
2022-12-03T13:04:20.242Z,13.30
2022-12-03T13:06:50.028Z,13.80
2022-12-03T13:09:23.374Z,12.57
2022-12-03T13:12:19.530Z,14.25
2022-12-03T13:14:46.886Z,12.02
2022-12-03T13:17:16.959Z,13.52
2022-12-03T13:19:49.363Z,13.98
2022-12-03T13:22:22.866Z,13.20
2022-12-03T13:24:51.786Z,13.75
2022-12-03T13:27:22.683Z,14.32
2022-12-03T13:29:52.939Z,14.50
2022-12-03T13:32:23.468Z,12.93
2022-12-03T13:34:50.872Z,14.73
2022-12-03T13:37:25.369Z,14.13
2022-12-03T13:39:56.197Z,13.77
2022-12-03T13:42:41.600Z,14.93
2022-12-03T13:45:15.070Z,16.65
2022-12-03T13:47:44.990Z,17.33
2022-12-03T13:50:38.537Z,16.30
2022-12-03T13:53:11.923Z,14.10
2022-12-03T13:55:43.754Z,13.02
2022-12-03T13:58:11.133Z,12.25
2022-12-03T14:00:38.609Z,13.25
2022-12-03T14:03:06.012Z,14.27
2022-12-03T14:05:33.318Z,12.60
2022-12-03T14:08:03.641Z,14.15
2022-12-03T14:10:31.077Z,13.35
2022-12-03T14:12:58.800Z,13.07
2022-12-03T14:15:26.598Z,13.55
2022-12-03T14:17:54.050Z,13.13
2022-12-03T14:20:21.583Z,12.50
2022-12-03T14:22:49.112Z,14.27
2022-12-03T14:25:16.388Z,18.15
2022-12-03T14:27:43.769Z,18.52
2022-12-03T14:30:11.696Z,19.73
2022-12-03T14:32:38.987Z,19.63
2022-12-03T14:35:10.156Z,19.45
2022-12-03T14:37:37.682Z,18.55
2022-12-03T14:40:07.083Z,25.00
2022-12-03T14:42:35.428Z,28.98
2022-12-03T14:45:04.623Z,29.77
2022-12-03T14:47:31.883Z,23.73
2022-12-03T14:49:59.266Z,21.67
2022-12-03T14:52:26.596Z,20.20
2022-12-03T14:54:54.013Z,19.27
2022-12-03T14:57:21.444Z,16.60
2022-12-03T14:59:48.786Z,17.15
2022-12-03T15:02:16.258Z,13.48
2022-12-03T15:04:43.590Z,13.60
2022-12-03T15:07:10.971Z,14.40
2022-12-03T15:09:38.254Z,19.73
2022-12-03T15:12:05.926Z,18.13
2022-12-03T15:14:33.268Z,18.95
2022-12-03T15:17:00.594Z,19.85
2022-12-03T15:19:27.924Z,21.75
2022-12-03T15:21:55.215Z,26.65
2022-12-03T15:24:22.554Z,27.00
2022-12-03T15:26:53.382Z,26.48
2022-12-03T15:29:21.078Z,27.73
2022-12-03T15:31:48.469Z,23.25
2022-12-03T15:34:21.875Z,21.15
2022-12-03T15:36:50.203Z,20.48
2022-12-03T15:39:17.530Z,20.90
2022-12-03T15:41:44.858Z,21.40
2022-12-03T15:44:12.295Z,21.30
2022-12-03T15:46:39.698Z,19.52
2022-12-03T15:49:07.157Z,20.23
2022-12-03T15:51:34.492Z,21.65
2022-12-03T15:54:01.838Z,22.52
2022-12-03T15:56:29.219Z,28.20
2022-12-03T15:58:57.655Z,24.40
2022-12-03T16:01:25.142Z,22.33
2022-12-03T16:03:52.512Z,22.90
2022-12-03T16:06:19.867Z,21.10
2022-12-03T16:08:48.227Z,21.60
2022-12-03T16:11:15.857Z,21.67
2022-12-03T16:13:43.147Z,23.25
2022-12-03T16:16:10.511Z,26.83
2022-12-03T16:18:37.969Z,28.27
2022-12-03T16:21:05.365Z,33.25
2022-12-03T16:23:32.700Z,32.20
2022-12-03T16:26:00.043Z,29.63
2022-12-03T16:28:27.349Z,31.55
2022-12-03T16:30:54.820Z,29.25
2022-12-03T16:33:27.337Z,28.38
2022-12-03T16:35:55.397Z,30.85
2022-12-03T16:38:22.779Z,28.77
2022-12-03T16:40:50.204Z,31.20
2022-12-03T16:43:19.747Z,31.88
2022-12-03T16:45:56.202Z,35.60
2022-12-03T16:48:23.664Z,39.63
2022-12-03T16:50:50.983Z,38.17
2022-12-03T16:53:18.581Z,35.28
2022-12-03T16:55:46.015Z,29.25
2022-12-03T16:58:13.365Z,27.35
2022-12-03T17:00:40.678Z,26.67
2022-12-03T17:03:10.767Z,29.95
2022-12-03T17:05:40.994Z,29.10
2022-12-03T17:08:09.428Z,30.38
2022-12-03T17:10:36.898Z,30.25
2022-12-03T17:13:11.491Z,29.70
2022-12-03T17:15:39.945Z,28.27
2022-12-03T17:18:08.559Z,29.00
2022-12-03T17:20:36.309Z,28.23
2022-12-03T17:23:04.064Z,28.17
2022-12-03T17:25:31.391Z,33.05
2022-12-03T17:27:58.690Z,34.03
2022-12-03T17:30:26.026Z,33.17
2022-12-03T17:32:53.408Z,31.77
2022-12-03T17:35:20.773Z,33.25
2022-12-03T17:37:48.054Z,31.10
2022-12-03T17:40:17.275Z,31.77
2022-12-03T17:42:44.653Z,31.95
2022-12-03T17:45:12.659Z,31.67
2022-12-03T17:47:40.072Z,32.03
2022-12-03T17:50:08.325Z,32.47
2022-12-03T17:52:35.763Z,30.45
2022-12-03T17:55:15.744Z,31.70
2022-12-03T17:57:48.772Z,31.27
2022-12-03T18:00:16.421Z,32.65
2022-12-03T18:02:43.690Z,33.03
2022-12-03T18:05:11.050Z,34.08
2022-12-03T18:07:38.429Z,33.28
2022-12-03T18:10:06.601Z,33.70
2022-12-03T18:12:34.127Z,34.03
2022-12-03T18:15:01.426Z,34.83
2022-12-03T18:17:28.722Z,36.05
2022-12-03T18:19:56.420Z,37.90
2022-12-03T18:22:24.110Z,34.53
2022-12-03T18:24:52.192Z,34.60
2022-12-03T18:27:24.491Z,31.42
2022-12-03T18:29:52.546Z,29.70
2022-12-03T18:32:28.821Z,31.98
2022-12-03T18:34:57.770Z,30.85
2022-12-03T18:37:27.913Z,27.40
2022-12-03T18:42:23.981Z,27.17
2022-12-03T18:44:53.823Z,27.55
2022-12-03T18:47:24.572Z,27.25
2022-12-03T18:49:52.353Z,29.02
2022-12-03T18:52:22.084Z,27.77
2022-12-03T18:54:49.511Z,27.63
2022-12-03T18:57:17.925Z,27.20
2022-12-03T18:59:45.312Z,26.77
2022-12-03T19:02:45.958Z,26.40
2022-12-03T19:05:06.127Z,26.13
2022-12-03T19:07:33.587Z,25.38
2022-12-03T19:10:01.052Z,24.40
2022-12-03T19:12:28.545Z,24.27
2022-12-03T19:14:55.931Z,24.05
2022-12-03T19:17:23.270Z,24.30
2022-12-03T19:19:50.626Z,24.58
2022-12-03T19:22:18.071Z,25.02
2022-12-03T19:24:45.361Z,24.63
2022-12-03T19:27:12.681Z,26.02
2022-12-03T19:29:40.559Z,25.17
2022-12-03T19:32:08.956Z,26.25
2022-12-03T19:34:36.615Z,27.08
2022-12-03T19:37:03.940Z,28.65
2022-12-03T19:39:31.958Z,27.52
2022-12-03T19:41:59.362Z,27.65
2022-12-03T19:44:26.723Z,27.90
2022-12-03T19:46:54.376Z,27.75
2022-12-03T19:49:22.341Z,25.38
2022-12-03T19:51:50.194Z,24.15
2022-12-03T19:54:18.498Z,22.60
2022-12-03T19:56:46.361Z,21.15
2022-12-03T19:59:14.234Z,22.80
2022-12-03T20:01:43.208Z,23.83
2022-12-03T20:04:11.718Z,23.77
2022-12-03T20:06:39.539Z,22.42
2022-12-03T20:09:11.453Z,21.90
2022-12-03T20:11:41.162Z,22.38
2022-12-03T20:14:12.144Z,21.23
2022-12-03T20:16:39.775Z,23.02
2022-12-03T20:19:10.080Z,22.08
2022-12-03T20:21:38.161Z,21.17
2022-12-03T20:24:06.566Z,21.35
2022-12-03T20:26:34.528Z,23.25
2022-12-03T20:29:02.230Z,24.42
2022-12-03T20:31:31.489Z,22.52
2022-12-03T20:34:01.069Z,23.35
2022-12-03T20:36:30.307Z,21.40
2022-12-03T20:38:59.873Z,21.88
2022-12-03T20:41:28.000Z,20.33
2022-12-03T20:43:55.725Z,20.85
2022-12-03T20:46:25.915Z,21.85
2022-12-03T20:48:55.044Z,19.58
2022-12-03T20:51:25.108Z,20.40
2022-12-03T20:53:52.511Z,18.63
2022-12-03T20:56:26.133Z,19.35
2022-12-03T20:58:54.333Z,19.38
2022-12-03T21:01:26.736Z,18.63
2022-12-03T21:03:55.721Z,19.48
2022-12-03T21:06:25.585Z,18.42
2022-12-03T21:08:54.062Z,18.63
2022-12-03T21:11:24.284Z,17.52
2022-12-03T21:13:53.515Z,19.10
2022-12-03T21:16:52.007Z,18.27
2022-12-03T21:19:13.691Z,19.15
2022-12-03T21:21:41.228Z,18.52
2022-12-03T21:24:08.790Z,21.67
2022-12-03T21:26:36.469Z,18.98
2022-12-03T21:29:03.935Z,20.42
2022-12-03T21:31:31.933Z,20.67
2022-12-03T21:33:59.514Z,18.23
2022-12-03T21:36:26.925Z,17.67
2022-12-03T21:38:54.407Z,17.85
2022-12-03T21:41:21.748Z,16.52
2022-12-03T21:43:49.012Z,16.55
2022-12-03T21:47:11.510Z,17.25
2022-12-03T21:49:04.758Z,15.25
2022-12-03T21:51:32.099Z,17.27
2022-12-03T21:53:59.403Z,16.70
2022-12-03T21:56:26.741Z,17.30
2022-12-03T21:58:54.873Z,16.60
2022-12-03T22:01:24.079Z,17.45
2022-12-03T22:03:51.767Z,15.98
2022-12-03T22:06:19.259Z,15.98
2022-12-03T22:08:47.050Z,16.38
2022-12-03T22:11:20.735Z,16.25
2022-12-03T22:13:48.711Z,17.50
2022-12-03T22:16:18.720Z,18.45
2022-12-03T22:18:46.680Z,17.10
2022-12-03T22:21:16.717Z,17.15
2022-12-03T22:23:44.610Z,16.17
2022-12-03T22:26:14.369Z,16.75
2022-12-03T22:28:46.324Z,17.25
2022-12-03T22:31:14.378Z,17.40
2022-12-03T22:33:42.356Z,15.80
2022-12-03T22:36:20.153Z,16.02
2022-12-03T22:38:50.750Z,15.93
2022-12-03T22:41:19.274Z,16.30
2022-12-03T22:43:47.301Z,16.73
2022-12-03T22:46:15.586Z,15.38
2022-12-03T22:48:46.554Z,16.85
2022-12-03T22:51:26.725Z,16.30
2022-12-03T22:53:58.974Z,16.48
2022-12-03T22:56:27.424Z,16.17
2022-12-03T22:58:55.172Z,14.55
2022-12-03T23:01:28.062Z,15.48
2022-12-03T23:03:55.909Z,15.50
2022-12-03T23:06:23.876Z,15.93
2022-12-03T23:08:51.527Z,15.77
2022-12-03T23:11:18.901Z,16.40
2022-12-03T23:13:46.450Z,14.68
2022-12-03T23:16:17.838Z,13.27
2022-12-03T23:18:45.842Z,13.25
2022-12-03T23:21:29.344Z,15.18
2022-12-03T23:23:59.555Z,13.40
2022-12-03T23:26:28.111Z,13.63
2022-12-03T23:28:55.784Z,14.57
2022-12-03T23:31:26.210Z,14.65
2022-12-03T23:33:54.687Z,12.95
2022-12-03T23:36:23.554Z,14.48
2022-12-03T23:38:51.045Z,14.48
2022-12-03T23:41:21.600Z,15.30
2022-12-03T23:43:49.602Z,15.77
2022-12-03T23:46:20.213Z,15.23
2022-12-03T23:48:48.265Z,15.27
2022-12-03T23:51:18.883Z,14.68
2022-12-03T23:53:47.044Z,15.60
2022-12-03T23:56:21.175Z,14.75
2022-12-03T23:58:48.985Z,14.98
